createdAt,value
2024-02-10T00:00:19.988Z,98275.75
2024-02-10T00:02:51.582Z,98269.19
2024-02-10T00:05:17.907Z,98263.69
2024-02-10T00:07:52.139Z,98270.28
2024-02-10T00:10:21.106Z,98265.50
2024-02-10T00:12:47.562Z,98274.91
2024-02-10T00:15:15.050Z,98255.44
2024-02-10T00:17:41.326Z,98273.19
2024-02-10T00:20:13.985Z,98280.72
2024-02-10T00:22:40.118Z,98268.75
2024-02-10T00:25:06.567Z,98279.75
2024-02-10T00:27:32.365Z,98268.28
2024-02-10T00:29:59.213Z,98267.91
2024-02-10T00:32:25.046Z,98255.59
2024-02-10T00:34:50.894Z,98277.59
2024-02-10T00:37:17.104Z,98279.53
2024-02-10T00:39:44.809Z,98254.13
2024-02-10T00:42:12.081Z,98271.06
2024-02-10T00:44:38.653Z,98274.44
2024-02-10T00:47:13.038Z,98266.47
2024-02-10T00:49:39.837Z,98272.25
2024-02-10T00:52:08.842Z,98276.13
2024-02-10T00:54:38.391Z,98269.38
2024-02-10T00:57:10.839Z,98272.53
2024-02-10T00:59:41.564Z,98264.44
2024-02-10T01:02:18.218Z,98246.94
2024-02-10T01:04:44.722Z,98239.09
2024-02-10T01:07:10.814Z,98242.47
2024-02-10T01:09:39.281Z,98242.59
2024-02-10T01:12:06.155Z,98241.75
2024-02-10T01:14:32.732Z,98219.28
2024-02-10T01:16:59.398Z,98231.34
2024-02-10T01:19:26.528Z,98226.91
2024-02-10T01:21:55.281Z,98230.66
2024-02-10T01:24:21.995Z,98231.50
2024-02-10T01:26:50.228Z,98224.50
2024-02-10T01:29:16.221Z,98210.00
2024-02-10T01:31:42.795Z,98226.94
2024-02-10T01:34:09.481Z,98233.94
2024-02-10T01:36:35.467Z,98228.38
2024-02-10T01:39:01.773Z,98212.44
2024-02-10T01:41:30.568Z,98212.44
2024-02-10T01:43:56.397Z,98219.81
2024-02-10T01:46:23.819Z,98222.81
2024-02-10T01:48:51.089Z,98221.75
2024-02-10T01:51:20.973Z,98197.72
2024-02-10T01:53:48.197Z,98213.66
2024-02-10T01:56:17.973Z,98202.66
2024-02-10T01:58:48.206Z,98214.84
2024-02-10T02:01:17.717Z,98216.53
2024-02-10T02:03:46.978Z,98224.63
2024-02-10T02:06:17.952Z,98216.44
2024-02-10T02:08:51.462Z,98218.34
2024-02-10T02:11:17.896Z,98199.66
2024-02-10T02:13:44.153Z,98209.53
2024-02-10T02:16:12.985Z,98202.31
2024-02-10T02:18:40.192Z,98184.34
2024-02-10T02:21:06.866Z,98180.69
2024-02-10T02:23:35.498Z,98202.91
2024-02-10T02:26:01.453Z,98184.69
2024-02-10T02:28:27.412Z,98174.31
2024-02-10T02:30:53.286Z,98185.53
2024-02-10T02:33:21.190Z,98186.13
2024-02-10T02:35:48.609Z,98169.50
2024-02-10T02:38:14.456Z,98161.28
2024-02-10T02:40:42.309Z,98166.34
2024-02-10T02:43:09.485Z,98180.34
2024-02-10T02:45:35.923Z,98154.28
2024-02-10T02:48:04.582Z,98161.50
2024-02-10T02:50:31.129Z,98180.09
2024-02-10T02:53:02.665Z,98159.44
2024-02-10T02:55:29.309Z,98157.28
2024-02-10T02:57:56.291Z,98169.59
2024-02-10T03:00:23.041Z,98171.88
2024-02-10T03:02:49.396Z,98135.91
2024-02-10T03:05:18.364Z,98162.59
2024-02-10T03:07:47.989Z,98180.47
2024-02-10T03:10:14.928Z,98160.03
2024-02-10T03:12:49.231Z,98176.72
2024-02-10T03:15:15.722Z,98170.19
2024-02-10T03:17:47.223Z,98163.44
2024-02-10T03:20:13.746Z,98150.13
2024-02-10T03:22:40.372Z,98148.66
2024-02-10T03:25:06.657Z,98153.63
2024-02-10T03:27:32.529Z,98171.88
2024-02-10T03:30:00.625Z,98178.78
2024-02-10T03:32:32.973Z,98168.50
2024-02-10T03:34:59.052Z,98170.06
2024-02-10T03:37:29.007Z,98160.03
2024-02-10T03:39:55.069Z,98185.88
2024-02-10T03:42:20.941Z,98185.41
2024-02-10T03:44:47.117Z,98163.44
2024-02-10T03:47:13.037Z,98158.59
2024-02-10T03:49:38.904Z,98155.19
2024-02-10T03:52:04.959Z,98185.88
2024-02-10T03:54:30.860Z,98176.19
2024-02-10T03:56:56.776Z,98171.50
2024-02-10T03:59:23.177Z,98196.50
2024-02-10T04:01:49.052Z,98189.75
2024-02-10T04:04:15.118Z,98173.78
2024-02-10T04:06:41.184Z,98157.13
2024-02-10T04:09:07.611Z,98186.59
2024-02-10T04:11:37.190Z,98178.34
2024-02-10T04:14:03.983Z,98164.81
2024-02-10T04:16:30.037Z,98188.00
2024-02-10T04:18:59.743Z,98185.59
2024-02-10T04:21:26.811Z,98175.19
2024-02-10T04:23:52.653Z,98167.47
2024-02-10T04:26:19.090Z,98173.38
2024-02-10T04:28:45.418Z,98181.56
2024-02-10T04:31:13.679Z,98187.63
2024-02-10T04:33:50.849Z,98161.78
2024-02-10T04:36:17.018Z,98154.41
2024-02-10T04:38:42.917Z,98156.34
2024-02-10T04:41:08.842Z,98168.16
2024-02-10T04:43:36.448Z,98146.41
2024-02-10T04:46:02.580Z,98137.72
2024-02-10T04:48:28.452Z,98152.19
2024-02-10T04:50:57.486Z,98154.13
2024-02-10T04:53:25.624Z,98137.09
2024-02-10T04:55:51.891Z,98141.81
2024-02-10T04:58:17.738Z,98134.81
2024-02-10T05:00:43.747Z,98112.88
2024-02-10T05:03:09.787Z,98136.75
2024-02-10T05:05:35.854Z,98145.88
2024-02-10T05:08:01.812Z,98146.13
2024-02-10T05:10:27.748Z,98153.09
2024-02-10T05:12:56.155Z,98121.94
2024-02-10T05:15:23.556Z,98117.13
2024-02-10T05:17:51.067Z,98147.56
2024-02-10T05:20:22.960Z,98122.22
2024-02-10T05:22:53.882Z,98119.91
2024-02-10T05:25:21.902Z,98128.72
2024-02-10T05:27:48.745Z,98117.38
2024-02-10T05:30:24.600Z,98127.59
2024-02-10T05:32:51.877Z,98121.28
2024-02-10T05:35:20.899Z,98132.50
2024-02-10T05:37:55.723Z,98128.72
2024-02-10T05:40:22.668Z,98122.81
2024-02-10T05:42:50.579Z,98139.72
2024-02-10T05:45:18.646Z,98114.03
2024-02-10T05:47:45.501Z,98139.22
2024-02-10T05:50:18.901Z,98092.19
2024-02-10T05:52:45.669Z,98107.22
2024-02-10T05:55:21.649Z,98097.75
2024-02-10T05:57:50.812Z,98132.66
2024-02-10T06:00:17.032Z,98137.41
2024-02-10T06:02:43.080Z,98144.66
2024-02-10T06:05:10.973Z,98150.28
2024-02-10T06:07:41.640Z,98123.25
2024-02-10T06:10:15.992Z,98148.81
2024-02-10T06:12:46.377Z,98154.31
2024-02-10T06:15:13.385Z,98116.88
2024-02-10T06:17:45.215Z,98134.25
2024-02-10T06:20:15.477Z,98137.22
2024-02-10T06:22:48.049Z,98105.50
2024-02-10T06:25:23.250Z,98119.03
2024-02-10T06:27:52.924Z,98109.84
2024-02-10T06:30:19.438Z,98104.44
2024-02-10T06:32:45.908Z,98131.31
2024-02-10T06:35:13.418Z,98141.03
2024-02-10T06:37:41.096Z,98150.13
2024-02-10T06:40:09.076Z,98153.06
2024-02-10T06:42:35.980Z,98165.13
2024-02-10T06:45:08.605Z,98154.56
2024-02-10T06:47:36.476Z,98155.41
2024-02-10T06:50:04.768Z,98171.06
2024-02-10T06:52:37.475Z,98160.69
2024-02-10T06:55:04.922Z,98159.09
2024-02-10T06:57:34.102Z,98177.50
2024-02-10T07:00:15.305Z,98168.06
2024-02-10T07:02:43.474Z,98167.66
2024-02-10T07:05:10.580Z,98176.16
2024-02-10T07:07:39.653Z,98156.44
2024-02-10T07:10:12.650Z,98192.75
2024-02-10T07:12:38.484Z,98190.75
2024-02-10T07:15:04.674Z,98192.44
2024-02-10T07:17:31.572Z,98181.84
2024-02-10T07:19:57.395Z,98183.13
2024-02-10T07:22:25.984Z,98198.69
2024-02-10T07:24:51.824Z,98185.03
2024-02-10T07:27:18.338Z,98175.03
2024-02-10T07:29:45.733Z,98211.25
2024-02-10T07:32:13.572Z,98217.81
2024-02-10T07:34:40.123Z,98218.00
2024-02-10T07:37:07.528Z,98194.47
2024-02-10T07:39:33.804Z,98204.94
2024-02-10T07:42:01.958Z,98206.06
2024-02-10T07:44:28.257Z,98217.88
2024-02-10T07:46:55.806Z,98217.41
2024-02-10T07:49:23.286Z,98223.94
2024-02-10T07:51:49.561Z,98208.03
2024-02-10T07:54:20.595Z,98205.69
2024-02-10T07:56:47.305Z,98192.94
2024-02-10T07:59:14.010Z,98208.53
2024-02-10T08:01:40.110Z,98221.59
2024-02-10T08:04:10.263Z,98220.06
2024-02-10T08:06:36.890Z,98185.47
2024-02-10T08:09:03.626Z,98209.28
2024-02-10T08:11:29.917Z,98204.72
2024-02-10T08:13:57.019Z,98209.06
2024-02-10T08:16:28.485Z,98187.34
2024-02-10T08:18:57.832Z,98185.78
2024-02-10T08:21:26.572Z,98174.78
2024-02-10T08:23:52.913Z,98204.84
2024-02-10T08:26:22.092Z,98198.16
2024-02-10T08:28:51.940Z,98197.44
2024-02-10T08:31:21.133Z,98193.06
2024-02-10T08:33:50.841Z,98201.03
2024-02-10T08:36:19.873Z,98195.19
2024-02-10T08:38:46.569Z,98200.00
2024-02-10T08:41:13.228Z,98211.88
2024-02-10T08:43:47.814Z,98199.03
2024-02-10T08:46:17.461Z,98181.66
2024-02-10T08:48:43.882Z,98198.78
2024-02-10T08:51:13.713Z,98208.84
2024-02-10T08:53:43.196Z,98204.13
2024-02-10T08:56:12.746Z,98189.84
2024-02-10T08:58:44.543Z,98207.78
2024-02-10T09:01:16.264Z,98188.44
2024-02-10T09:03:53.096Z,98214.22
2024-02-10T09:06:23.313Z,98201.16
2024-02-10T09:08:51.281Z,98217.09
2024-02-10T09:11:18.637Z,98215.91
2024-02-10T09:13:45.713Z,98212.56
2024-02-10T09:16:14.925Z,98211.44
2024-02-10T09:18:44.409Z,98220.03
2024-02-10T09:21:14.968Z,98217.09
2024-02-10T09:23:42.583Z,98186.94
2024-02-10T09:26:15.557Z,98199.56
2024-02-10T09:28:47.643Z,98220.56
2024-02-10T09:31:14.624Z,98221.41
2024-02-10T09:33:42.775Z,98208.41
2024-02-10T09:36:12.416Z,98211.94
2024-02-10T09:38:40.052Z,98221.53
2024-02-10T09:41:08.250Z,98211.97
2024-02-10T09:43:37.380Z,98210.03
2024-02-10T09:46:07.262Z,98191.75
2024-02-10T09:48:42.236Z,98221.81
2024-02-10T09:51:08.686Z,98204.69
2024-02-10T09:53:35.262Z,98219.34
2024-02-10T09:56:03.339Z,98207.56
2024-02-10T09:58:30.384Z,98224.72
2024-02-10T10:01:00.247Z,98218.72
2024-02-10T10:03:27.077Z,98223.03
2024-02-10T10:05:52.986Z,98219.91
2024-02-10T10:08:22.441Z,98184.53
2024-02-10T10:10:51.485Z,98211.25
2024-02-10T10:13:17.677Z,98209.19
2024-02-10T10:15:43.643Z,98189.66
2024-02-10T10:18:16.606Z,98212.44
2024-02-10T10:20:49.858Z,98210.19
2024-02-10T10:23:16.637Z,98199.53
2024-02-10T10:25:46.298Z,98205.97
2024-02-10T10:28:14.137Z,98200.63
2024-02-10T10:30:44.291Z,98222.38
2024-02-10T10:33:11.447Z,98182.34
2024-02-10T10:35:45.411Z,98197.81
2024-02-10T10:38:12.340Z,98204.84
2024-02-10T10:40:38.905Z,98184.03
2024-02-10T10:43:12.474Z,98183.47
2024-02-10T10:45:40.223Z,98184.28
2024-02-10T10:48:06.753Z,98189.34
2024-02-10T10:50:34.004Z,98181.75
2024-02-10T10:53:06.708Z,98190.91
2024-02-10T10:55:39.455Z,98185.13
2024-02-10T10:58:09.844Z,98159.84
2024-02-10T11:00:39.716Z,98166.25
2024-02-10T11:03:05.790Z,98174.41
2024-02-10T11:05:40.703Z,98130.75
2024-02-10T11:08:08.846Z,98147.19
2024-02-10T11:10:40.229Z,98161.22
2024-02-10T11:13:07.371Z,98148.31
2024-02-10T11:15:38.308Z,98148.72
2024-02-10T11:18:04.624Z,98155.78
2024-02-10T11:20:35.363Z,98156.75
2024-02-10T11:23:12.150Z,98158.59
2024-02-10T11:25:42.306Z,98159.28
2024-02-10T11:28:20.959Z,98134.81
2024-02-10T11:30:48.154Z,98104.78
2024-02-10T11:33:17.776Z,98131.00
2024-02-10T11:35:47.029Z,98148.28
2024-02-10T11:38:14.640Z,98144.19
2024-02-10T11:40:41.125Z,98157.44
2024-02-10T11:43:11.279Z,98133.81
2024-02-10T11:45:40.173Z,98150.13
2024-02-10T11:48:08.884Z,98146.16
2024-02-10T11:50:58.959Z,98158.19
2024-02-10T11:53:31.678Z,98138.56
2024-02-10T11:55:59.003Z,98151.31
2024-02-10T11:58:28.032Z,98162.25
2024-02-10T12:00:53.972Z,98163.09
2024-02-10T12:03:23.899Z,98164.94
2024-02-10T12:05:50.015Z,98165.50
2024-02-10T12:08:16.013Z,98143.06
2024-02-10T12:10:42.836Z,98165.50
2024-02-10T12:13:11.839Z,98152.63
2024-02-10T12:15:41.111Z,98171.66
2024-02-10T12:18:08.366Z,98166.56
2024-02-10T12:20:38.140Z,98166.31
2024-02-10T12:23:04.342Z,98167.25
2024-02-10T12:25:30.193Z,98144.63
2024-02-10T12:27:57.818Z,98165.50
2024-02-10T12:30:23.776Z,98148.78
2024-02-10T12:32:54.836Z,98147.09
2024-02-10T12:35:21.006Z,98142.53
2024-02-10T12:37:47.760Z,98151.06
2024-02-10T12:40:17.988Z,98145.28
2024-02-10T12:42:43.986Z,98132.72
2024-02-10T12:45:12.029Z,98143.13
2024-02-10T12:47:38.361Z,98136.69
2024-02-10T12:50:09.510Z,98139.22
2024-02-10T12:52:39.010Z,98149.38
2024-02-10T12:55:14.075Z,98146.31
2024-02-10T12:57:41.378Z,98153.03
2024-02-10T13:00:19.486Z,98134.31
2024-02-10T13:02:52.460Z,98124.06
2024-02-10T13:05:20.829Z,98139.22
2024-02-10T13:07:47.148Z,98129.91
2024-02-10T13:10:24.997Z,98118.94
2024-02-10T13:12:53.819Z,98122.13
2024-02-10T13:15:20.638Z,98125.16
2024-02-10T13:17:50.716Z,98109.25
2024-02-10T13:20:18.031Z,98116.44
2024-02-10T13:22:44.909Z,98096.66
2024-02-10T13:25:11.041Z,98120.59
2024-02-10T13:27:37.555Z,98106.91
2024-02-10T13:30:08.890Z,98111.63
2024-02-10T13:32:38.748Z,98116.84
2024-02-10T13:35:18.303Z,98113.84
2024-02-10T13:38:05.345Z,98106.28
2024-02-10T13:40:50.610Z,98132.97
2024-02-10T13:43:35.243Z,98124.94
2024-02-10T13:46:19.465Z,98109.81
2024-02-10T13:49:04.637Z,98111.78
2024-02-10T13:51:48.879Z,98105.06
2024-02-10T13:54:33.073Z,98102.06
2024-02-10T13:57:17.837Z,98105.22
2024-02-10T13:59:43.760Z,98087.69
2024-02-10T14:02:18.341Z,98094.72
2024-02-10T14:04:48.666Z,98122.47
2024-02-10T14:07:31.353Z,98104.00
2024-02-10T14:10:12.276Z,98132.88
2024-02-10T14:12:46.309Z,98122.47
2024-02-10T14:15:21.093Z,98117.75
2024-02-10T14:17:48.237Z,98121.44
2024-02-10T14:20:20.382Z,98121.72
2024-02-10T14:22:47.960Z,98113.84
2024-02-10T14:25:24.336Z,98107.75
2024-02-10T14:27:59.235Z,98101.22
2024-02-10T14:30:34.732Z,98091.69
2024-02-10T14:33:16.309Z,98098.47
2024-02-10T14:35:58.815Z,98116.97
2024-02-10T14:38:25.171Z,98111.63
2024-02-10T14:40:52.332Z,98120.63
2024-02-10T14:43:19.022Z,98106.06
2024-02-10T14:45:45.573Z,98119.28
2024-02-10T14:48:11.599Z,98102.31
2024-02-10T14:50:37.669Z,98101.97
2024-02-10T14:53:03.781Z,98100.81
2024-02-10T14:55:31.099Z,98106.69
2024-02-10T14:57:57.067Z,98106.03
2024-02-10T15:00:31.318Z,98118.47
2024-02-10T15:02:59.508Z,98107.16
2024-02-10T15:05:28.170Z,98129.47
2024-02-10T15:08:00.405Z,98119.13
2024-02-10T15:10:27.533Z,98132.75
2024-02-10T15:12:55.467Z,98121.13
2024-02-10T15:15:21.454Z,98121.13
2024-02-10T15:17:48.147Z,98122.53
2024-02-10T15:20:14.073Z,98103.19
2024-02-10T15:22:41.149Z,98116.53
2024-02-10T15:25:07.608Z,98101.53
2024-02-10T15:27:34.916Z,98122.59
2024-02-10T15:30:01.553Z,98102.13
2024-02-10T15:32:27.790Z,98128.56
2024-02-10T15:35:00.480Z,98126.16
2024-02-10T15:37:29.053Z,98105.84
2024-02-10T15:39:55.218Z,98117.09
2024-02-10T15:42:21.071Z,98126.94
2024-02-10T15:44:47.726Z,98110.06
2024-02-10T15:47:13.954Z,98131.56
2024-02-10T15:49:42.772Z,98123.84
2024-02-10T15:52:09.845Z,98110.38
2024-02-10T15:54:35.718Z,98088.47
2024-02-10T15:57:02.790Z,98122.91
2024-02-10T15:59:33.341Z,98119.97
2024-02-10T16:01:59.221Z,98128.81
2024-02-10T16:04:25.093Z,98125.59
2024-02-10T16:06:51.301Z,98112.41
2024-02-10T16:09:17.900Z,98127.84
2024-02-10T16:11:43.845Z,98130.41
2024-02-10T16:14:11.979Z,98132.78
2024-02-10T16:16:38.479Z,98122.25
2024-02-10T16:19:05.170Z,98126.88
2024-02-10T16:21:31.096Z,98136.56
2024-02-10T16:24:00.152Z,98132.19
2024-02-10T16:26:26.665Z,98138.81
2024-02-10T16:28:53.254Z,98137.44
2024-02-10T16:31:21.180Z,98143.63
2024-02-10T16:33:51.882Z,98133.75
2024-02-10T16:36:22.139Z,98146.66
2024-02-10T16:38:47.996Z,98146.94
2024-02-10T16:41:22.906Z,98135.31
2024-02-10T16:43:48.990Z,98143.56
2024-02-10T16:46:16.732Z,98145.25
2024-02-10T16:48:46.531Z,98135.97
2024-02-10T16:51:32.469Z,98147.22
2024-02-10T16:53:59.842Z,98129.69
2024-02-10T16:56:25.894Z,98145.81
2024-02-10T16:58:54.636Z,98147.81
2024-02-10T17:01:20.654Z,98147.94
2024-02-10T17:03:46.656Z,98147.81
2024-02-10T17:06:13.095Z,98142.72
2024-02-10T17:08:39.038Z,98140.50
2024-02-10T17:11:06.217Z,98130.09
2024-02-10T17:13:32.145Z,98147.09
2024-02-10T17:15:58.070Z,98127.00
2024-02-10T17:18:24.179Z,98131.78
2024-02-10T17:21:03.287Z,98134.56
2024-02-10T17:23:32.235Z,98128.25
2024-02-10T17:26:07.103Z,98124.19
2024-02-10T17:28:33.213Z,98121.13
2024-02-10T17:30:59.195Z,98139.34
2024-02-10T17:33:27.087Z,98142.72
2024-02-10T17:35:53.580Z,98121.38
2024-02-10T17:38:21.421Z,98129.69
2024-02-10T17:40:48.396Z,98143.72
2024-02-10T17:43:17.732Z,98132.63
2024-02-10T17:45:44.346Z,98127.28
2024-02-10T17:48:20.422Z,98132.63
2024-02-10T17:50:54.219Z,98138.66
2024-02-10T17:53:22.481Z,98130.94
2024-02-10T17:55:50.416Z,98136.66
2024-02-10T17:58:19.042Z,98114.63
2024-02-10T18:00:51.815Z,98131.50
2024-02-10T18:03:23.285Z,98111.53
2024-02-10T18:05:51.225Z,98130.94
2024-02-10T18:08:20.060Z,98129.25
2024-02-10T18:10:49.538Z,98109.16
2024-02-10T18:13:17.537Z,98105.66
2024-02-10T18:15:44.305Z,98129.22
2024-02-10T18:18:12.811Z,98124.88
2024-02-10T18:20:39.141Z,98127.00
2024-02-10T18:23:07.188Z,98103.94
2024-02-10T18:25:33.659Z,98103.34
2024-02-10T18:28:04.355Z,98122.31
2024-02-10T18:30:30.324Z,98129.22
2024-02-10T18:32:56.273Z,98111.22
2024-02-10T18:35:25.275Z,98125.97
2024-02-10T18:37:55.261Z,98114.28
2024-02-10T18:40:27.099Z,98112.78
2024-02-10T18:42:54.057Z,98141.00
2024-02-10T18:45:20.649Z,98117.97
2024-02-10T18:47:47.469Z,98130.31
2024-02-10T18:50:19.907Z,98134.25
2024-02-10T18:52:50.097Z,98138.44
2024-02-10T18:55:19.448Z,98135.06
2024-02-10T18:57:46.250Z,98131.13
2024-02-10T19:00:21.363Z,98141.66
2024-02-10T19:02:49.759Z,98132.63
2024-02-10T19:05:16.788Z,98156.66
2024-02-10T19:07:43.864Z,98150.16
2024-02-10T19:10:10.581Z,98150.72
2024-02-10T19:12:37.544Z,98153.53
2024-02-10T19:15:10.321Z,98142.06
2024-02-10T19:17:37.744Z,98143.03
2024-02-10T19:20:08.019Z,98113.06
2024-02-10T19:22:36.961Z,98142.41
2024-02-10T19:25:10.922Z,98161.41
2024-02-10T19:27:38.900Z,98137.38
2024-02-10T19:30:11.868Z,98115.47
2024-02-10T19:32:42.324Z,98148.22
2024-02-10T19:35:22.696Z,98133.03
2024-02-10T19:37:49.596Z,98131.78
2024-02-10T19:40:17.017Z,98131.19
2024-02-10T19:42:43.941Z,98123.59
2024-02-10T19:45:14.669Z,98134.97
2024-02-10T19:47:41.305Z,98129.22
2024-02-10T19:50:09.356Z,98134.53
2024-02-10T19:52:37.805Z,98120.53
2024-02-10T19:55:04.232Z,98139.56
2024-02-10T19:57:30.759Z,98121.88
2024-02-10T19:59:59.328Z,98117.53
2024-02-10T20:02:25.744Z,98135.38
2024-02-10T20:04:54.820Z,98145.19
2024-02-10T20:07:20.993Z,98122.72
2024-02-10T20:09:50.623Z,98133.38
2024-02-10T20:12:16.539Z,98135.31
2024-02-10T20:14:42.563Z,98133.63
2024-02-10T20:17:10.708Z,98137.97
2024-02-10T20:19:42.426Z,98136.69
2024-02-10T20:22:09.320Z,98135.84
2024-02-10T20:24:36.150Z,98122.50
2024-02-10T20:27:08.796Z,98118.09
2024-02-10T20:29:36.198Z,98133.28
2024-02-10T20:32:03.288Z,98116.84
2024-02-10T20:34:31.866Z,98135.22
2024-02-10T20:36:58.355Z,98129.88
2024-02-10T20:39:28.388Z,98129.44
2024-02-10T20:41:58.602Z,98110.28
2024-02-10T20:44:27.150Z,98118.63
2024-02-10T20:46:56.160Z,98115.09
2024-02-10T20:49:25.522Z,98129.84
2024-02-10T20:51:55.280Z,98130.94
2024-02-10T20:54:21.927Z,98132.63
2024-02-10T20:56:49.936Z,98117.44
2024-02-10T20:59:18.061Z,98124.19
2024-02-10T21:01:43.963Z,98124.19
2024-02-10T21:04:13.406Z,98095.75
2024-02-10T21:06:40.965Z,98115.31
2024-02-10T21:09:11.103Z,98124.69
2024-02-10T21:11:41.002Z,98118.72
2024-02-10T21:14:13.864Z,98127.19
2024-02-10T21:16:42.071Z,98124.78
2024-02-10T21:19:09.168Z,98130.47
2024-02-10T21:21:37.448Z,98117.97
2024-02-10T21:24:03.622Z,98116.38
2024-02-10T21:26:31.934Z,98133.84
2024-02-10T21:28:57.856Z,98124.56
2024-02-10T21:31:23.826Z,98136.75
2024-02-10T21:33:51.155Z,98120.03
2024-02-10T21:36:19.922Z,98132.81
2024-02-10T21:38:46.223Z,98097.47
2024-02-10T21:41:12.174Z,98132.81
2024-02-10T21:43:40.194Z,98127.31
2024-02-10T21:46:06.334Z,98118.38
2024-02-10T21:48:32.251Z,98118.88
2024-02-10T21:50:58.233Z,98122.78
2024-02-10T21:53:26.066Z,98116.28
2024-02-10T21:55:51.976Z,98136.56
2024-02-10T21:58:18.956Z,98129.31
2024-02-10T22:00:44.792Z,98131.00
2024-02-10T22:03:10.724Z,98131.28
2024-02-10T22:05:36.879Z,98120.91
2024-02-10T22:08:03.052Z,98114.88
2024-02-10T22:10:31.071Z,98119.94
2024-02-10T22:12:56.960Z,98135.88
2024-02-10T22:15:22.838Z,98126.88
2024-02-10T22:17:48.933Z,98131.19
2024-02-10T22:20:16.648Z,98126.75
2024-02-10T22:22:43.230Z,98101.78
2024-02-10T22:25:10.932Z,98118.78
2024-02-10T22:27:38.187Z,98117.34
2024-02-10T22:30:07.542Z,98110.84
2024-02-10T22:32:33.435Z,98115.16
2024-02-10T22:34:59.629Z,98104.09
2024-02-10T22:37:25.859Z,98111.22
2024-02-10T22:39:52.691Z,98087.31
2024-02-10T22:42:23.859Z,98100.94
2024-02-10T22:44:51.912Z,98090.69
2024-02-10T22:47:19.071Z,98080.44
2024-02-10T22:49:46.347Z,98086.72
2024-02-10T22:52:22.223Z,98093.00
2024-02-10T22:54:52.694Z,98080.28
2024-02-10T22:57:19.031Z,98072.44
2024-02-10T22:59:45.574Z,98085.97
2024-02-10T23:02:16.440Z,98081.88
2024-02-10T23:04:46.604Z,98088.59
2024-02-10T23:07:14.664Z,98081.84
2024-02-10T23:09:43.476Z,98063.03
2024-02-10T23:12:12.639Z,98075.56
2024-02-10T23:14:45.939Z,98073.03
2024-02-10T23:17:19.588Z,98057.97
2024-02-10T23:19:53.144Z,98070.50
2024-02-10T23:22:31.949Z,98060.63
2024-02-10T23:24:58.930Z,98053.50
2024-02-10T23:27:28.351Z,98070.28
2024-02-10T23:29:55.455Z,98049.41
2024-02-10T23:32:23.488Z,98052.19
2024-02-10T23:34:50.472Z,98047.84
2024-02-10T23:37:22.347Z,98049.03
2024-02-10T23:39:50.424Z,98040.22
2024-02-10T23:42:16.751Z,98040.34
2024-02-10T23:44:42.975Z,98055.31
2024-02-10T23:47:14.054Z,98046.25
2024-02-10T23:49:44.666Z,98041.81
2024-02-10T23:52:14.424Z,98017.09
2024-02-10T23:54:42.099Z,98013.94
2024-02-10T23:57:09.497Z,98044.94
2024-02-10T23:59:38.853Z,98050.72
